sensor_id;sensor_type;location;lat;lon;timestamp;temperature;humidity
74617;DHT22;63123;50.906;4.198;2024-01-06T00:00:12;17.10;60.30
74617;DHT22;63123;50.906;4.198;2024-01-06T00:02:38;17.10;60.40
74617;DHT22;63123;50.906;4.198;2024-01-06T00:05:04;17.10;60.40
74617;DHT22;63123;50.906;4.198;2024-01-06T00:07:30;17.10;60.40
74617;DHT22;63123;50.906;4.198;2024-01-06T00:09:56;17.10;60.50
74617;DHT22;63123;50.906;4.198;2024-01-06T00:12:21;17.10;60.30
74617;DHT22;63123;50.906;4.198;2024-01-06T00:14:47;17.10;60.40
74617;DHT22;63123;50.906;4.198;2024-01-06T00:17:12;17.10;60.30
74617;DHT22;63123;50.906;4.198;2024-01-06T00:19:38;17.10;60.30
74617;DHT22;63123;50.906;4.198;2024-01-06T00:22:03;17.00;60.40
74617;DHT22;63123;50.906;4.198;2024-01-06T00:24:29;17.10;60.40
74617;DHT22;63123;50.906;4.198;2024-01-06T00:26:54;17.10;60.40
74617;DHT22;63123;50.906;4.198;2024-01-06T00:29:20;17.10;60.40
74617;DHT22;63123;50.906;4.198;2024-01-06T00:31:45;17.10;60.30
74617;DHT22;63123;50.906;4.198;2024-01-06T00:34:11;17.10;60.40
74617;DHT22;63123;50.906;4.198;2024-01-06T00:36:36;17.10;60.40
74617;DHT22;63123;50.906;4.198;2024-01-06T00:39:02;17.10;60.50
74617;DHT22;63123;50.906;4.198;2024-01-06T00:41:29;17.10;60.40
74617;DHT22;63123;50.906;4.198;2024-01-06T00:43:54;17.10;60.40
74617;DHT22;63123;50.906;4.198;2024-01-06T00:46:20;17.10;60.40
74617;DHT22;63123;50.906;4.198;2024-01-06T00:48:45;17.10;60.40
74617;DHT22;63123;50.906;4.198;2024-01-06T00:51:11;17.10;60.30
74617;DHT22;63123;50.906;4.198;2024-01-06T00:53:36;17.10;60.40
74617;DHT22;63123;50.906;4.198;2024-01-06T00:56:02;17.10;60.40
74617;DHT22;63123;50.906;4.198;2024-01-06T00:58:27;17.10;60.40
74617;DHT22;63123;50.906;4.198;2024-01-06T01:00:53;17.10;60.40
74617;DHT22;63123;50.906;4.198;2024-01-06T01:03:18;17.10;60.40
74617;DHT22;63123;50.906;4.198;2024-01-06T01:05:44;17.10;60.50
74617;DHT22;63123;50.906;4.198;2024-01-06T01:08:09;17.10;60.40
74617;DHT22;63123;50.906;4.198;2024-01-06T01:10:35;17.10;60.40
74617;DHT22;63123;50.906;4.198;2024-01-06T01:13:01;17.10;60.40
74617;DHT22;63123;50.906;4.198;2024-01-06T01:15:26;17.10;60.30
74617;DHT22;63123;50.906;4.198;2024-01-06T01:17:52;17.10;60.40
74617;DHT22;63123;50.906;4.198;2024-01-06T01:20:17;17.10;60.40
74617;DHT22;63123;50.906;4.198;2024-01-06T01:22:43;17.10;60.40
74617;DHT22;63123;50.906;4.198;2024-01-06T01:25:08;17.10;60.50
74617;DHT22;63123;50.906;4.198;2024-01-06T01:27:34;17.10;60.40
74617;DHT22;63123;50.906;4.198;2024-01-06T01:29:59;17.00;60.30
74617;DHT22;63123;50.906;4.198;2024-01-06T01:32:25;17.10;60.40
74617;DHT22;63123;50.906;4.198;2024-01-06T01:34:50;17.10;60.60
74617;DHT22;63123;50.906;4.198;2024-01-06T01:37:16;17.10;60.40
74617;DHT22;63123;50.906;4.198;2024-01-06T01:39:41;17.10;60.40
74617;DHT22;63123;50.906;4.198;2024-01-06T01:42:07;17.10;60.60
74617;DHT22;63123;50.906;4.198;2024-01-06T01:44:32;17.00;60.30
74617;DHT22;63123;50.906;4.198;2024-01-06T01:46:58;17.10;60.40
74617;DHT22;63123;50.906;4.198;2024-01-06T01:49:24;17.10;60.40
74617;DHT22;63123;50.906;4.198;2024-01-06T01:51:49;17.10;60.50
74617;DHT22;63123;50.906;4.198;2024-01-06T01:54:15;17.10;60.40
74617;DHT22;63123;50.906;4.198;2024-01-06T01:56:41;17.00;60.30
74617;DHT22;63123;50.906;4.198;2024-01-06T01:59:10;17.10;60.40
74617;DHT22;63123;50.906;4.198;2024-01-06T02:01:36;17.10;60.40
74617;DHT22;63123;50.906;4.198;2024-01-06T02:04:02;17.10;60.40
74617;DHT22;63123;50.906;4.198;2024-01-06T02:06:27;17.10;60.50
74617;DHT22;63123;50.906;4.198;2024-01-06T02:08:53;17.10;60.40
74617;DHT22;63123;50.906;4.198;2024-01-06T02:11:18;17.10;60.40
74617;DHT22;63123;50.906;4.198;2024-01-06T02:13:44;17.00;60.40
74617;DHT22;63123;50.906;4.198;2024-01-06T02:16:09;17.10;60.40
74617;DHT22;63123;50.906;4.198;2024-01-06T02:18:35;17.10;60.40
74617;DHT22;63123;50.906;4.198;2024-01-06T02:21:01;17.00;60.30
74617;DHT22;63123;50.906;4.198;2024-01-06T02:23:30;17.10;60.50
74617;DHT22;63123;50.906;4.198;2024-01-06T02:25:56;17.10;60.50
74617;DHT22;63123;50.906;4.198;2024-01-06T02:28:21;17.10;60.40
74617;DHT22;63123;50.906;4.198;2024-01-06T02:30:47;17.00;60.30
74617;DHT22;63123;50.906;4.198;2024-01-06T02:33:12;17.10;60.40
74617;DHT22;63123;50.906;4.198;2024-01-06T02:35:38;17.10;60.40
74617;DHT22;63123;50.906;4.198;2024-01-06T02:38:05;17.10;60.40
74617;DHT22;63123;50.906;4.198;2024-01-06T02:40:31;17.00;60.40
74617;DHT22;63123;50.906;4.198;2024-01-06T02:42:58;17.10;60.40
74617;DHT22;63123;50.906;4.198;2024-01-06T02:45:23;17.00;60.30
74617;DHT22;63123;50.906;4.198;2024-01-06T02:47:49;17.00;60.40
74617;DHT22;63123;50.906;4.198;2024-01-06T02:50:14;17.10;60.50
74617;DHT22;63123;50.906;4.198;2024-01-06T02:52:40;17.10;60.40
74617;DHT22;63123;50.906;4.198;2024-01-06T02:55:05;17.00;60.30
74617;DHT22;63123;50.906;4.198;2024-01-06T02:57:31;17.00;60.40
74617;DHT22;63123;50.906;4.198;2024-01-06T02:59:57;17.00;60.30
74617;DHT22;63123;50.906;4.198;2024-01-06T03:02:22;17.10;60.50
74617;DHT22;63123;50.906;4.198;2024-01-06T03:04:48;17.00;60.30
74617;DHT22;63123;50.906;4.198;2024-01-06T03:07:13;17.10;60.30
74617;DHT22;63123;50.906;4.198;2024-01-06T03:09:39;17.10;60.40
74617;DHT22;63123;50.906;4.198;2024-01-06T03:12:05;17.00;60.40
74617;DHT22;63123;50.906;4.198;2024-01-06T03:14:31;17.00;60.40
74617;DHT22;63123;50.906;4.198;2024-01-06T03:16:56;17.00;60.40
74617;DHT22;63123;50.906;4.198;2024-01-06T03:19:23;17.00;60.40
74617;DHT22;63123;50.906;4.198;2024-01-06T03:21:51;17.10;60.40
74617;DHT22;63123;50.906;4.198;2024-01-06T03:24:17;17.00;60.40
74617;DHT22;63123;50.906;4.198;2024-01-06T03:26:42;17.00;60.40
74617;DHT22;63123;50.906;4.198;2024-01-06T03:29:08;17.10;60.40
74617;DHT22;63123;50.906;4.198;2024-01-06T03:31:33;17.00;60.40
74617;DHT22;63123;50.906;4.198;2024-01-06T03:33:59;17.00;60.40
74617;DHT22;63123;50.906;4.198;2024-01-06T03:36:24;17.10;60.40
74617;DHT22;63123;50.906;4.198;2024-01-06T03:38:50;17.00;60.30
74617;DHT22;63123;50.906;4.198;2024-01-06T03:41:16;17.00;60.40
74617;DHT22;63123;50.906;4.198;2024-01-06T03:43:41;17.00;60.50
74617;DHT22;63123;50.906;4.198;2024-01-06T03:46:07;17.00;60.40
74617;DHT22;63123;50.906;4.198;2024-01-06T03:48:32;17.10;60.50
74617;DHT22;63123;50.906;4.198;2024-01-06T03:51:01;17.10;60.40
74617;DHT22;63123;50.906;4.198;2024-01-06T03:53:27;17.00;60.30
74617;DHT22;63123;50.906;4.198;2024-01-06T03:55:52;17.00;60.30
74617;DHT22;63123;50.906;4.198;2024-01-06T03:58:18;17.10;60.50
74617;DHT22;63123;50.906;4.198;2024-01-06T04:00:43;17.00;60.40
74617;DHT22;63123;50.906;4.198;2024-01-06T04:03:09;17.00;60.30
74617;DHT22;63123;50.906;4.198;2024-01-06T04:05:34;17.10;60.50
74617;DHT22;63123;50.906;4.198;2024-01-06T04:08:00;17.00;60.30
74617;DHT22;63123;50.906;4.198;2024-01-06T04:10:25;17.00;60.40
74617;DHT22;63123;50.906;4.198;2024-01-06T04:12:51;17.10;60.30
74617;DHT22;63123;50.906;4.198;2024-01-06T04:15:17;17.10;60.40
74617;DHT22;63123;50.906;4.198;2024-01-06T04:17:42;17.10;60.40
74617;DHT22;63123;50.906;4.198;2024-01-06T04:20:08;17.00;60.30
74617;DHT22;63123;50.906;4.198;2024-01-06T04:22:36;17.10;60.50
74617;DHT22;63123;50.906;4.198;2024-01-06T04:25:02;17.00;60.40
74617;DHT22;63123;50.906;4.198;2024-01-06T04:27:27;17.00;60.40
74617;DHT22;63123;50.906;4.198;2024-01-06T04:29:53;17.00;60.40
74617;DHT22;63123;50.906;4.198;2024-01-06T04:32:18;17.00;60.30
74617;DHT22;63123;50.906;4.198;2024-01-06T04:34:44;17.00;60.50
74617;DHT22;63123;50.906;4.198;2024-01-06T04:37:09;17.00;60.30
74617;DHT22;63123;50.906;4.198;2024-01-06T04:39:35;17.00;60.30
74617;DHT22;63123;50.906;4.198;2024-01-06T04:42:00;17.00;60.30
74617;DHT22;63123;50.906;4.198;2024-01-06T04:44:26;17.00;60.30
74617;DHT22;63123;50.906;4.198;2024-01-06T04:46:51;17.00;60.40
74617;DHT22;63123;50.906;4.198;2024-01-06T04:49:17;17.00;60.30
74617;DHT22;63123;50.906;4.198;2024-01-06T04:51:42;17.00;60.30
74617;DHT22;63123;50.906;4.198;2024-01-06T04:54:08;17.00;60.40
74617;DHT22;63123;50.906;4.198;2024-01-06T04:56:33;17.10;60.30
74617;DHT22;63123;50.906;4.198;2024-01-06T04:58:59;17.00;60.30
74617;DHT22;63123;50.906;4.198;2024-01-06T05:01:24;17.00;60.20
74617;DHT22;63123;50.906;4.198;2024-01-06T05:03:50;17.00;60.20
74617;DHT22;63123;50.906;4.198;2024-01-06T05:06:15;17.00;60.00
74617;DHT22;63123;50.906;4.198;2024-01-06T05:08:41;17.00;60.20
74617;DHT22;63123;50.906;4.198;2024-01-06T05:11:10;17.00;60.10
74617;DHT22;63123;50.906;4.198;2024-01-06T05:13:35;17.00;60.10
74617;DHT22;63123;50.906;4.198;2024-01-06T05:16:01;17.00;59.90
74617;DHT22;63123;50.906;4.198;2024-01-06T05:18:27;17.10;60.10
74617;DHT22;63123;50.906;4.198;2024-01-06T05:20:52;17.00;60.20
74617;DHT22;63123;50.906;4.198;2024-01-06T05:23:18;17.00;60.20
74617;DHT22;63123;50.906;4.198;2024-01-06T05:25:43;17.00;60.30
74617;DHT22;63123;50.906;4.198;2024-01-06T05:28:09;17.00;60.30
74617;DHT22;63123;50.906;4.198;2024-01-06T05:30:35;17.00;60.40
74617;DHT22;63123;50.906;4.198;2024-01-06T05:33:01;17.00;60.50
74617;DHT22;63123;50.906;4.198;2024-01-06T05:35:26;17.00;60.30
74617;DHT22;63123;50.906;4.198;2024-01-06T05:37:52;17.00;60.50
74617;DHT22;63123;50.906;4.198;2024-01-06T05:40:17;17.00;60.60
74617;DHT22;63123;50.906;4.198;2024-01-06T05:42:43;17.00;60.60
74617;DHT22;63123;50.906;4.198;2024-01-06T05:45:11;17.00;60.50
74617;DHT22;63123;50.906;4.198;2024-01-06T05:47:40;17.10;60.60
74617;DHT22;63123;50.906;4.198;2024-01-06T05:50:05;17.00;60.40
74617;DHT22;63123;50.906;4.198;2024-01-06T05:52:31;17.10;60.40
74617;DHT22;63123;50.906;4.198;2024-01-06T05:54:57;17.00;60.30
74617;DHT22;63123;50.906;4.198;2024-01-06T05:57:23;17.10;60.40
74617;DHT22;63123;50.906;4.198;2024-01-06T05:59:49;17.00;60.30
74617;DHT22;63123;50.906;4.198;2024-01-06T06:02:14;17.00;60.40
74617;DHT22;63123;50.906;4.198;2024-01-06T06:04:40;17.00;60.20
74617;DHT22;63123;50.906;4.198;2024-01-06T06:07:05;17.00;60.40
74617;DHT22;63123;50.906;4.198;2024-01-06T06:09:31;17.00;60.40
74617;DHT22;63123;50.906;4.198;2024-01-06T06:11:56;17.00;60.30
74617;DHT22;63123;50.906;4.198;2024-01-06T06:14:22;17.00;60.10
74617;DHT22;63123;50.906;4.198;2024-01-06T06:16:47;17.00;60.20
74617;DHT22;63123;50.906;4.198;2024-01-06T06:19:13;17.00;60.00
74617;DHT22;63123;50.906;4.198;2024-01-06T06:21:38;17.00;60.00
74617;DHT22;63123;50.906;4.198;2024-01-06T06:24:04;17.00;60.10
74617;DHT22;63123;50.906;4.198;2024-01-06T06:26:29;17.00;60.00
74617;DHT22;63123;50.906;4.198;2024-01-06T06:28:55;17.00;60.10
74617;DHT22;63123;50.906;4.198;2024-01-06T06:31:20;17.10;60.00
74617;DHT22;63123;50.906;4.198;2024-01-06T06:33:46;17.00;59.80
74617;DHT22;63123;50.906;4.198;2024-01-06T06:36:11;17.00;59.90
74617;DHT22;63123;50.906;4.198;2024-01-06T06:38:37;17.00;60.00
74617;DHT22;63123;50.906;4.198;2024-01-06T06:41:03;17.00;59.80
74617;DHT22;63123;50.906;4.198;2024-01-06T06:43:28;17.00;59.70
74617;DHT22;63123;50.906;4.198;2024-01-06T06:45:54;17.00;59.80
74617;DHT22;63123;50.906;4.198;2024-01-06T06:48:21;17.00;59.80
74617;DHT22;63123;50.906;4.198;2024-01-06T06:50:46;17.00;59.40
74617;DHT22;63123;50.906;4.198;2024-01-06T06:53:12;17.00;59.50
74617;DHT22;63123;50.906;4.198;2024-01-06T06:55:38;17.00;59.80
74617;DHT22;63123;50.906;4.198;2024-01-06T06:58:04;17.00;59.70
74617;DHT22;63123;50.906;4.198;2024-01-06T07:00:30;17.00;59.50
74617;DHT22;63123;50.906;4.198;2024-01-06T07:02:55;17.00;59.40
74617;DHT22;63123;50.906;4.198;2024-01-06T07:05:22;17.00;59.50
74617;DHT22;63123;50.906;4.198;2024-01-06T07:07:47;17.00;59.80
74617;DHT22;63123;50.906;4.198;2024-01-06T07:10:13;17.00;59.70
74617;DHT22;63123;50.906;4.198;2024-01-06T07:12:38;17.00;59.80
74617;DHT22;63123;50.906;4.198;2024-01-06T07:15:04;17.00;59.40
74617;DHT22;63123;50.906;4.198;2024-01-06T07:17:29;17.00;59.40
74617;DHT22;63123;50.906;4.198;2024-01-06T07:19:55;17.00;59.40
74617;DHT22;63123;50.906;4.198;2024-01-06T07:22:21;17.00;59.50
74617;DHT22;63123;50.906;4.198;2024-01-06T07:24:46;17.00;59.40
74617;DHT22;63123;50.906;4.198;2024-01-06T07:27:12;17.00;59.60
74617;DHT22;63123;50.906;4.198;2024-01-06T07:29:37;17.10;59.30
74617;DHT22;63123;50.906;4.198;2024-01-06T07:32:04;17.00;59.30
74617;DHT22;63123;50.906;4.198;2024-01-06T07:34:31;17.00;59.30
74617;DHT22;63123;50.906;4.198;2024-01-06T07:36:57;17.00;59.30
74617;DHT22;63123;50.906;4.198;2024-01-06T07:39:23;17.00;59.40
74617;DHT22;63123;50.906;4.198;2024-01-06T07:41:49;17.00;59.40
74617;DHT22;63123;50.906;4.198;2024-01-06T07:44:15;17.00;59.40
74617;DHT22;63123;50.906;4.198;2024-01-06T07:46:41;17.00;59.40
74617;DHT22;63123;50.906;4.198;2024-01-06T07:49:07;17.00;59.20
74617;DHT22;63123;50.906;4.198;2024-01-06T07:51:32;17.00;59.80
74617;DHT22;63123;50.906;4.198;2024-01-06T07:54:00;17.00;59.20
74617;DHT22;63123;50.906;4.198;2024-01-06T07:56:26;17.00;59.20
74617;DHT22;63123;50.906;4.198;2024-01-06T07:58:51;17.00;59.10
74617;DHT22;63123;50.906;4.198;2024-01-06T08:01:20;17.00;59.20
74617;DHT22;63123;50.906;4.198;2024-01-06T08:03:45;17.00;59.10
74617;DHT22;63123;50.906;4.198;2024-01-06T08:06:11;17.00;59.00
74617;DHT22;63123;50.906;4.198;2024-01-06T08:08:36;17.00;59.20
74617;DHT22;63123;50.906;4.198;2024-01-06T08:11:02;17.00;59.20
74617;DHT22;63123;50.906;4.198;2024-01-06T08:13:27;17.00;59.10
74617;DHT22;63123;50.906;4.198;2024-01-06T08:15:53;17.00;59.10
74617;DHT22;63123;50.906;4.198;2024-01-06T08:18:18;17.00;59.10
74617;DHT22;63123;50.906;4.198;2024-01-06T08:20:44;17.00;59.00
74617;DHT22;63123;50.906;4.198;2024-01-06T08:23:10;17.00;58.90
74617;DHT22;63123;50.906;4.198;2024-01-06T08:25:36;17.00;58.70
74617;DHT22;63123;50.906;4.198;2024-01-06T08:28:01;17.00;58.70
74617;DHT22;63123;50.906;4.198;2024-01-06T08:30:27;17.00;58.60
74617;DHT22;63123;50.906;4.198;2024-01-06T08:32:52;17.00;58.40
74617;DHT22;63123;50.906;4.198;2024-01-06T08:35:18;17.00;58.40
74617;DHT22;63123;50.906;4.198;2024-01-06T08:37:45;17.00;58.30
74617;DHT22;63123;50.906;4.198;2024-01-06T08:40:10;17.00;58.50
74617;DHT22;63123;50.906;4.198;2024-01-06T08:42:36;17.00;58.60
74617;DHT22;63123;50.906;4.198;2024-01-06T08:45:02;17.00;58.30
74617;DHT22;63123;50.906;4.198;2024-01-06T08:47:27;17.00;58.30
74617;DHT22;63123;50.906;4.198;2024-01-06T08:49:53;17.00;58.20
74617;DHT22;63123;50.906;4.198;2024-01-06T08:52:18;17.00;58.10
74617;DHT22;63123;50.906;4.198;2024-01-06T08:54:44;17.00;58.10
74617;DHT22;63123;50.906;4.198;2024-01-06T08:57:09;17.00;58.00
74617;DHT22;63123;50.906;4.198;2024-01-06T08:59:35;17.00;58.40
74617;DHT22;63123;50.906;4.198;2024-01-06T09:02:01;17.00;58.40
74617;DHT22;63123;50.906;4.198;2024-01-06T09:04:26;17.00;58.20
74617;DHT22;63123;50.906;4.198;2024-01-06T09:06:52;17.00;58.30
74617;DHT22;63123;50.906;4.198;2024-01-06T09:09:17;17.00;58.00
74617;DHT22;63123;50.906;4.198;2024-01-06T09:11:43;17.00;58.30
74617;DHT22;63123;50.906;4.198;2024-01-06T09:14:09;17.00;58.10
74617;DHT22;63123;50.906;4.198;2024-01-06T09:16:36;17.00;58.30
74617;DHT22;63123;50.906;4.198;2024-01-06T09:19:02;17.00;58.20
74617;DHT22;63123;50.906;4.198;2024-01-06T09:21:27;17.00;58.20
74617;DHT22;63123;50.906;4.198;2024-01-06T09:23:53;17.00;58.20
74617;DHT22;63123;50.906;4.198;2024-01-06T09:26:18;17.00;57.90
74617;DHT22;63123;50.906;4.198;2024-01-06T09:28:44;17.00;58.20
74617;DHT22;63123;50.906;4.198;2024-01-06T09:31:09;17.00;58.10
74617;DHT22;63123;50.906;4.198;2024-01-06T09:33:35;17.00;58.10
74617;DHT22;63123;50.906;4.198;2024-01-06T09:36:01;17.00;58.00
74617;DHT22;63123;50.906;4.198;2024-01-06T09:38:26;17.00;58.00
74617;DHT22;63123;50.906;4.198;2024-01-06T09:40:52;17.00;57.50
74617;DHT22;63123;50.906;4.198;2024-01-06T09:43:18;17.00;57.30
74617;DHT22;63123;50.906;4.198;2024-01-06T09:45:45;17.00;57.30
74617;DHT22;63123;50.906;4.198;2024-01-06T09:48:13;17.00;57.30
74617;DHT22;63123;50.906;4.198;2024-01-06T09:50:42;17.00;57.30
74617;DHT22;63123;50.906;4.198;2024-01-06T09:53:12;17.00;57.50
74617;DHT22;63123;50.906;4.198;2024-01-06T09:55:38;17.00;57.70
74617;DHT22;63123;50.906;4.198;2024-01-06T09:58:04;17.00;57.50
74617;DHT22;63123;50.906;4.198;2024-01-06T10:00:30;17.00;58.00
74617;DHT22;63123;50.906;4.198;2024-01-06T10:02:55;17.00;57.70
74617;DHT22;63123;50.906;4.198;2024-01-06T10:05:21;17.00;57.70
74617;DHT22;63123;50.906;4.198;2024-01-06T10:07:47;17.00;57.90
74617;DHT22;63123;50.906;4.198;2024-01-06T10:10:12;17.00;57.50
74617;DHT22;63123;50.906;4.198;2024-01-06T10:12:38;17.00;57.50
74617;DHT22;63123;50.906;4.198;2024-01-06T10:15:05;17.00;57.70
74617;DHT22;63123;50.906;4.198;2024-01-06T10:17:31;17.00;57.50
74617;DHT22;63123;50.906;4.198;2024-01-06T10:19:57;17.00;57.70
74617;DHT22;63123;50.906;4.198;2024-01-06T10:22:22;17.00;57.40
74617;DHT22;63123;50.906;4.198;2024-01-06T10:24:48;17.00;57.30
74617;DHT22;63123;50.906;4.198;2024-01-06T10:27:13;17.00;57.60
74617;DHT22;63123;50.906;4.198;2024-01-06T10:29:39;17.00;57.30
74617;DHT22;63123;50.906;4.198;2024-01-06T10:32:05;17.00;57.50
74617;DHT22;63123;50.906;4.198;2024-01-06T10:34:31;17.00;57.30
74617;DHT22;63123;50.906;4.198;2024-01-06T10:36:57;17.00;57.20
74617;DHT22;63123;50.906;4.198;2024-01-06T10:39:23;17.00;57.20
74617;DHT22;63123;50.906;4.198;2024-01-06T10:41:48;17.00;57.60
74617;DHT22;63123;50.906;4.198;2024-01-06T10:44:14;17.00;57.40
74617;DHT22;63123;50.906;4.198;2024-01-06T10:46:40;17.00;57.20
74617;DHT22;63123;50.906;4.198;2024-01-06T10:49:06;17.00;57.20
74617;DHT22;63123;50.906;4.198;2024-01-06T10:51:38;17.00;57.10
74617;DHT22;63123;50.906;4.198;2024-01-06T10:54:04;17.00;57.10
74617;DHT22;63123;50.906;4.198;2024-01-06T10:56:30;17.00;57.10
74617;DHT22;63123;50.906;4.198;2024-01-06T10:59:01;17.00;56.90
74617;DHT22;63123;50.906;4.198;2024-01-06T11:01:28;17.00;56.90
74617;DHT22;63123;50.906;4.198;2024-01-06T11:03:54;17.00;57.20
74617;DHT22;63123;50.906;4.198;2024-01-06T11:06:20;17.00;56.90
74617;DHT22;63123;50.906;4.198;2024-01-06T11:09:06;17.00;57.20
74617;DHT22;63123;50.906;4.198;2024-01-06T11:11:32;17.00;57.10
74617;DHT22;63123;50.906;4.198;2024-01-06T11:16:42;17.00;57.40
74617;DHT22;63123;50.906;4.198;2024-01-06T11:19:42;17.00;57.10
74617;DHT22;63123;50.906;4.198;2024-01-06T11:21:54;17.00;57.00
74617;DHT22;63123;50.906;4.198;2024-01-06T11:24:19;17.00;56.90
74617;DHT22;63123;50.906;4.198;2024-01-06T11:26:50;17.00;56.90
74617;DHT22;63123;50.906;4.198;2024-01-06T11:29:16;17.00;56.70
74617;DHT22;63123;50.906;4.198;2024-01-06T11:31:42;17.00;57.00
74617;DHT22;63123;50.906;4.198;2024-01-06T11:34:26;17.00;57.10
74617;DHT22;63123;50.906;4.198;2024-01-06T11:36:55;17.00;56.90
74617;DHT22;63123;50.906;4.198;2024-01-06T11:39:33;17.00;57.00
74617;DHT22;63123;50.906;4.198;2024-01-06T11:41:59;17.00;56.80
74617;DHT22;63123;50.906;4.198;2024-01-06T11:44:26;17.00;57.00
74617;DHT22;63123;50.906;4.198;2024-01-06T11:46:54;17.00;57.10
74617;DHT22;63123;50.906;4.198;2024-01-06T11:49:21;17.00;56.90
74617;DHT22;63123;50.906;4.198;2024-01-06T11:51:47;17.00;57.00
74617;DHT22;63123;50.906;4.198;2024-01-06T11:54:12;17.00;57.10
74617;DHT22;63123;50.906;4.198;2024-01-06T11:56:38;17.00;57.00
74617;DHT22;63123;50.906;4.198;2024-01-06T11:59:03;17.00;56.90
74617;DHT22;63123;50.906;4.198;2024-01-06T12:01:38;17.00;57.00
74617;DHT22;63123;50.906;4.198;2024-01-06T12:04:04;17.00;57.10
74617;DHT22;63123;50.906;4.198;2024-01-06T12:06:30;17.00;56.60
74617;DHT22;63123;50.906;4.198;2024-01-06T12:09:03;17.00;56.70
74617;DHT22;63123;50.906;4.198;2024-01-06T12:11:28;17.00;56.70
74617;DHT22;63123;50.906;4.198;2024-01-06T12:13:54;17.00;56.70
74617;DHT22;63123;50.906;4.198;2024-01-06T12:16:19;17.00;56.60
74617;DHT22;63123;50.906;4.198;2024-01-06T12:18:45;17.00;57.10
74617;DHT22;63123;50.906;4.198;2024-01-06T12:21:10;17.00;56.60
74617;DHT22;63123;50.906;4.198;2024-01-06T12:23:36;17.00;56.60
74617;DHT22;63123;50.906;4.198;2024-01-06T12:26:02;17.00;56.70
74617;DHT22;63123;50.906;4.198;2024-01-06T12:28:28;17.00;56.70
74617;DHT22;63123;50.906;4.198;2024-01-06T12:30:53;17.00;56.80
74617;DHT22;63123;50.906;4.198;2024-01-06T12:33:19;17.00;57.10
74617;DHT22;63123;50.906;4.198;2024-01-06T12:35:45;17.00;57.60
74617;DHT22;63123;50.906;4.198;2024-01-06T12:38:10;17.00;56.90
74617;DHT22;63123;50.906;4.198;2024-01-06T12:40:36;17.00;57.10
74617;DHT22;63123;50.906;4.198;2024-01-06T12:43:03;17.00;57.60
74617;DHT22;63123;50.906;4.198;2024-01-06T12:45:29;17.00;57.10
74617;DHT22;63123;50.906;4.198;2024-01-06T12:47:54;17.00;57.20
74617;DHT22;63123;50.906;4.198;2024-01-06T12:50:20;17.00;56.90
74617;DHT22;63123;50.906;4.198;2024-01-06T12:52:45;17.00;56.90
74617;DHT22;63123;50.906;4.198;2024-01-06T12:55:11;17.00;56.80
74617;DHT22;63123;50.906;4.198;2024-01-06T12:57:37;17.00;57.00
74617;DHT22;63123;50.906;4.198;2024-01-06T13:00:02;17.00;57.00
74617;DHT22;63123;50.906;4.198;2024-01-06T13:02:29;17.00;57.00
74617;DHT22;63123;50.906;4.198;2024-01-06T13:04:54;17.00;56.70
74617;DHT22;63123;50.906;4.198;2024-01-06T13:07:20;17.00;56.90
74617;DHT22;63123;50.906;4.198;2024-01-06T13:09:47;17.00;57.10
74617;DHT22;63123;50.906;4.198;2024-01-06T13:12:13;17.00;57.10
74617;DHT22;63123;50.906;4.198;2024-01-06T13:14:38;17.00;56.70
74617;DHT22;63123;50.906;4.198;2024-01-06T13:17:04;17.00;56.60
74617;DHT22;63123;50.906;4.198;2024-01-06T13:19:30;17.00;57.50
74617;DHT22;63123;50.906;4.198;2024-01-06T13:21:56;17.00;56.60
74617;DHT22;63123;50.906;4.198;2024-01-06T13:24:22;17.00;56.50
74617;DHT22;63123;50.906;4.198;2024-01-06T13:26:47;17.00;56.80
74617;DHT22;63123;50.906;4.198;2024-01-06T13:29:13;17.00;56.50
74617;DHT22;63123;50.906;4.198;2024-01-06T13:31:39;17.00;56.80
74617;DHT22;63123;50.906;4.198;2024-01-06T13:34:05;17.00;57.00
74617;DHT22;63123;50.906;4.198;2024-01-06T13:36:31;17.00;57.00
74617;DHT22;63123;50.906;4.198;2024-01-06T13:38:56;17.00;56.50
74617;DHT22;63123;50.906;4.198;2024-01-06T13:41:22;17.00;56.60
74617;DHT22;63123;50.906;4.198;2024-01-06T13:43:47;17.00;56.60
74617;DHT22;63123;50.906;4.198;2024-01-06T13:46:14;17.00;56.60
74617;DHT22;63123;50.906;4.198;2024-01-06T13:48:39;17.00;56.70
74617;DHT22;63123;50.906;4.198;2024-01-06T13:51:06;17.00;56.30
74617;DHT22;63123;50.906;4.198;2024-01-06T13:53:32;17.00;56.40
74617;DHT22;63123;50.906;4.198;2024-01-06T13:55:58;17.00;56.30
74617;DHT22;63123;50.906;4.198;2024-01-06T13:58:23;17.00;56.20
74617;DHT22;63123;50.906;4.198;2024-01-06T14:00:49;17.00;56.20
74617;DHT22;63123;50.906;4.198;2024-01-06T14:03:15;17.00;57.00
74617;DHT22;63123;50.906;4.198;2024-01-06T14:05:40;17.00;56.50
74617;DHT22;63123;50.906;4.198;2024-01-06T14:08:06;17.00;56.10
74617;DHT22;63123;50.906;4.198;2024-01-06T14:10:31;17.00;56.40
74617;DHT22;63123;50.906;4.198;2024-01-06T14:12:57;17.00;55.90
74617;DHT22;63123;50.906;4.198;2024-01-06T14:15:23;17.00;56.50
74617;DHT22;63123;50.906;4.198;2024-01-06T14:17:48;17.00;56.50
74617;DHT22;63123;50.906;4.198;2024-01-06T14:20:15;17.00;55.80
74617;DHT22;63123;50.906;4.198;2024-01-06T14:22:46;17.00;56.00
74617;DHT22;63123;50.906;4.198;2024-01-06T14:25:15;17.00;56.10
74617;DHT22;63123;50.906;4.198;2024-01-06T14:27:41;17.00;55.80
74617;DHT22;63123;50.906;4.198;2024-01-06T14:30:07;17.00;56.00
74617;DHT22;63123;50.906;4.198;2024-01-06T14:32:35;17.00;56.20
74617;DHT22;63123;50.906;4.198;2024-01-06T14:35:02;17.00;56.30
74617;DHT22;63123;50.906;4.198;2024-01-06T14:37:28;17.00;56.20
74617;DHT22;63123;50.906;4.198;2024-01-06T14:39:54;17.00;55.90
74617;DHT22;63123;50.906;4.198;2024-01-06T14:42:19;17.00;56.40
74617;DHT22;63123;50.906;4.198;2024-01-06T14:44:45;17.00;55.80
74617;DHT22;63123;50.906;4.198;2024-01-06T14:47:10;17.00;56.00
74617;DHT22;63123;50.906;4.198;2024-01-06T14:49:37;17.00;56.00
74617;DHT22;63123;50.906;4.198;2024-01-06T14:52:02;17.00;55.70
74617;DHT22;63123;50.906;4.198;2024-01-06T14:54:28;17.00;55.70
74617;DHT22;63123;50.906;4.198;2024-01-06T14:56:56;17.00;55.70
74617;DHT22;63123;50.906;4.198;2024-01-06T14:59:23;17.00;55.90
74617;DHT22;63123;50.906;4.198;2024-01-06T15:01:48;17.00;55.70
74617;DHT22;63123;50.906;4.198;2024-01-06T15:04:14;17.00;55.80
74617;DHT22;63123;50.906;4.198;2024-01-06T15:06:40;17.00;55.70
74617;DHT22;63123;50.906;4.198;2024-01-06T15:09:05;17.00;55.70
74617;DHT22;63123;50.906;4.198;2024-01-06T15:11:31;17.00;56.10
74617;DHT22;63123;50.906;4.198;2024-01-06T15:13:57;17.00;55.80
74617;DHT22;63123;50.906;4.198;2024-01-06T15:16:22;17.00;55.80
74617;DHT22;63123;50.906;4.198;2024-01-06T15:18:48;17.00;55.60
74617;DHT22;63123;50.906;4.198;2024-01-06T15:21:15;17.00;55.50
74617;DHT22;63123;50.906;4.198;2024-01-06T15:23:45;17.00;55.70